sensor_id;sensor_type;location;lat;lon;timestamp;P1;P2;P0
75946;PMS5003;64628;50.104;14.614;2023-04-02T00:00:26;11;9;
75946;PMS5003;64628;50.104;14.614;2023-04-02T00:02:55;8;6;
75946;PMS5003;64628;50.104;14.614;2023-04-02T00:07:42;11;11;
75946;PMS5003;64628;50.104;14.614;2023-04-02T00:12:33;11;8;
75946;PMS5003;64628;50.104;14.614;2023-04-02T00:15:04;5;4;
75946;PMS5003;64628;50.104;14.614;2023-04-02T00:17:23;6;6;
75946;PMS5003;64628;50.104;14.614;2023-04-02T00:19:50;8;8;
75946;PMS5003;64628;50.104;14.614;2023-04-02T00:22:16;4;4;
75946;PMS5003;64628;50.104;14.614;2023-04-02T00:24:41;10;9;
75946;PMS5003;64628;50.104;14.614;2023-04-02T00:27:04;7;7;
75946;PMS5003;64628;50.104;14.614;2023-04-02T00:29:30;10;5;
75946;PMS5003;64628;50.104;14.614;2023-04-02T00:32:00;10;7;
75946;PMS5003;64628;50.104;14.614;2023-04-02T00:34:21;13;11;
75946;PMS5003;64628;50.104;14.614;2023-04-02T00:36:46;10;10;
75946;PMS5003;64628;50.104;14.614;2023-04-02T00:39:13;9;6;
75946;PMS5003;64628;50.104;14.614;2023-04-02T00:41:37;11;9;
75946;PMS5003;64628;50.104;14.614;2023-04-02T00:44:02;10;7;
75946;PMS5003;64628;50.104;14.614;2023-04-02T00:46:28;11;9;
75946;PMS5003;64628;50.104;14.614;2023-04-02T00:48:53;10;9;
75946;PMS5003;64628;50.104;14.614;2023-04-02T00:51:25;12;11;
75946;PMS5003;64628;50.104;14.614;2023-04-02T00:53:44;13;13;
75946;PMS5003;64628;50.104;14.614;2023-04-02T00:56:12;13;12;
75946;PMS5003;64628;50.104;14.614;2023-04-02T00:58:34;10;10;
75946;PMS5003;64628;50.104;14.614;2023-04-02T01:00:59;10;9;
75946;PMS5003;64628;50.104;14.614;2023-04-02T01:03:27;12;11;
75946;PMS5003;64628;50.104;14.614;2023-04-02T01:05:51;9;9;
75946;PMS5003;64628;50.104;14.614;2023-04-02T01:08:18;10;9;
75946;PMS5003;64628;50.104;14.614;2023-04-02T01:10:46;14;10;
75946;PMS5003;64628;50.104;14.614;2023-04-02T01:13:09;13;10;
75946;PMS5003;64628;50.104;14.614;2023-04-02T01:15:33;12;11;
75946;PMS5003;64628;50.104;14.614;2023-04-02T01:20:29;10;8;
75946;PMS5003;64628;50.104;14.614;2023-04-02T01:25:14;9;8;
75946;PMS5003;64628;50.104;14.614;2023-04-02T01:27:39;10;9;
75946;PMS5003;64628;50.104;14.614;2023-04-02T01:30:05;14;12;
75946;PMS5003;64628;50.104;14.614;2023-04-02T01:32:30;17;17;
75946;PMS5003;64628;50.104;14.614;2023-04-02T01:34:56;16;14;
75946;PMS5003;64628;50.104;14.614;2023-04-02T01:37:25;13;13;
75946;PMS5003;64628;50.104;14.614;2023-04-02T01:39:54;11;10;
75946;PMS5003;64628;50.104;14.614;2023-04-02T01:42:19;11;9;
75946;PMS5003;64628;50.104;14.614;2023-04-02T01:44:39;11;11;
75946;PMS5003;64628;50.104;14.614;2023-04-02T01:47:06;8;8;
75946;PMS5003;64628;50.104;14.614;2023-04-02T01:49:38;12;9;
75946;PMS5003;64628;50.104;14.614;2023-04-02T01:51:56;10;10;
75946;PMS5003;64628;50.104;14.614;2023-04-02T01:54:21;10;9;
75946;PMS5003;64628;50.104;14.614;2023-04-02T01:56:46;11;11;
75946;PMS5003;64628;50.104;14.614;2023-04-02T01:59:13;10;9;
75946;PMS5003;64628;50.104;14.614;2023-04-02T02:01:38;9;9;
75946;PMS5003;64628;50.104;14.614;2023-04-02T02:04:02;11;10;
75946;PMS5003;64628;50.104;14.614;2023-04-02T02:06:27;10;8;
75946;PMS5003;64628;50.104;14.614;2023-04-02T02:08:53;11;10;
75946;PMS5003;64628;50.104;14.614;2023-04-02T02:11:19;10;10;
75946;PMS5003;64628;50.104;14.614;2023-04-02T02:13:45;9;9;
75946;PMS5003;64628;50.104;14.614;2023-04-02T02:16:09;9;9;
75946;PMS5003;64628;50.104;14.614;2023-04-02T02:18:34;11;10;
75946;PMS5003;64628;50.104;14.614;2023-04-02T02:20:59;11;10;
75946;PMS5003;64628;50.104;14.614;2023-04-02T02:23:25;11;11;
75946;PMS5003;64628;50.104;14.614;2023-04-02T02:25:50;16;13;
75946;PMS5003;64628;50.104;14.614;2023-04-02T02:28:16;16;12;
75946;PMS5003;64628;50.104;14.614;2023-04-02T02:30:42;11;11;
75946;PMS5003;64628;50.104;14.614;2023-04-02T02:33:07;16;16;
75946;PMS5003;64628;50.104;14.614;2023-04-02T02:35:32;13;11;
75946;PMS5003;64628;50.104;14.614;2023-04-02T02:37:58;10;9;
75946;PMS5003;64628;50.104;14.614;2023-04-02T02:40:23;13;10;
75946;PMS5003;64628;50.104;14.614;2023-04-02T02:42:48;19;13;
75946;PMS5003;64628;50.104;14.614;2023-04-02T02:45:14;14;12;
75946;PMS5003;64628;50.104;14.614;2023-04-02T02:47:38;10;10;
75946;PMS5003;64628;50.104;14.614;2023-04-02T02:50:05;16;13;
75946;PMS5003;64628;50.104;14.614;2023-04-02T02:52:29;12;12;
75946;PMS5003;64628;50.104;14.614;2023-04-02T02:54:54;11;11;
75946;PMS5003;64628;50.104;14.614;2023-04-02T02:57:20;19;15;
75946;PMS5003;64628;50.104;14.614;2023-04-02T02:59:44;14;13;
75946;PMS5003;64628;50.104;14.614;2023-04-02T03:02:09;13;12;
75946;PMS5003;64628;50.104;14.614;2023-04-02T03:04:34;14;13;
75946;PMS5003;64628;50.104;14.614;2023-04-02T03:07:00;12;12;
75946;PMS5003;64628;50.104;14.614;2023-04-02T03:09:30;19;19;
75946;PMS5003;64628;50.104;14.614;2023-04-02T03:11:52;15;15;
75946;PMS5003;64628;50.104;14.614;2023-04-02T03:14:19;18;15;
75946;PMS5003;64628;50.104;14.614;2023-04-02T03:16:42;19;16;
75946;PMS5003;64628;50.104;14.614;2023-04-02T03:19:07;19;16;
75946;PMS5003;64628;50.104;14.614;2023-04-02T03:21:32;18;18;
75946;PMS5003;64628;50.104;14.614;2023-04-02T03:23:58;23;20;
75946;PMS5003;64628;50.104;14.614;2023-04-02T03:26:24;25;25;
75946;PMS5003;64628;50.104;14.614;2023-04-02T03:28:50;26;26;
75946;PMS5003;64628;50.104;14.614;2023-04-02T03:31:15;44;40;
75946;PMS5003;64628;50.104;14.614;2023-04-02T03:33:39;25;21;
75946;PMS5003;64628;50.104;14.614;2023-04-02T03:36:06;40;39;
75946;PMS5003;64628;50.104;14.614;2023-04-02T03:38:30;25;23;
75946;PMS5003;64628;50.104;14.614;2023-04-02T03:41:01;28;25;
75946;PMS5003;64628;50.104;14.614;2023-04-02T03:43:22;23;23;
75946;PMS5003;64628;50.104;14.614;2023-04-02T03:45:47;39;36;
75946;PMS5003;64628;50.104;14.614;2023-04-02T03:48:14;48;45;
75946;PMS5003;64628;50.104;14.614;2023-04-02T03:50:39;30;24;
75946;PMS5003;64628;50.104;14.614;2023-04-02T03:53:03;23;20;
75946;PMS5003;64628;50.104;14.614;2023-04-02T03:55:29;20;16;
75946;PMS5003;64628;50.104;14.614;2023-04-02T03:57:54;29;28;
75946;PMS5003;64628;50.104;14.614;2023-04-02T04:00:19;23;18;
75946;PMS5003;64628;50.104;14.614;2023-04-02T04:02:46;22;18;
75946;PMS5003;64628;50.104;14.614;2023-04-02T04:07:35;18;16;
75946;PMS5003;64628;50.104;14.614;2023-04-02T04:10:06;17;16;
75946;PMS5003;64628;50.104;14.614;2023-04-02T04:12:30;16;16;
75946;PMS5003;64628;50.104;14.614;2023-04-02T04:14:51;15;14;
75946;PMS5003;64628;50.104;14.614;2023-04-02T04:17:16;21;18;
75946;PMS5003;64628;50.104;14.614;2023-04-02T04:19:41;23;20;
75946;PMS5003;64628;50.104;14.614;2023-04-02T04:22:08;23;20;
75946;PMS5003;64628;50.104;14.614;2023-04-02T04:24:31;39;39;
75946;PMS5003;64628;50.104;14.614;2023-04-02T04:26:59;57;53;
75946;PMS5003;64628;50.104;14.614;2023-04-02T04:29:29;48;47;
75946;PMS5003;64628;50.104;14.614;2023-04-02T04:31:49;35;35;
75946;PMS5003;64628;50.104;14.614;2023-04-02T04:34:21;54;50;
75946;PMS5003;64628;50.104;14.614;2023-04-02T04:36:41;32;28;
75946;PMS5003;64628;50.104;14.614;2023-04-02T04:39:06;38;38;
75946;PMS5003;64628;50.104;14.614;2023-04-02T04:41:31;25;22;
75946;PMS5003;64628;50.104;14.614;2023-04-02T04:43:58;22;19;
75946;PMS5003;64628;50.104;14.614;2023-04-02T04:46:24;40;39;
75946;PMS5003;64628;50.104;14.614;2023-04-02T04:48:49;39;35;
75946;PMS5003;64628;50.104;14.614;2023-04-02T04:51:18;38;38;
75946;PMS5003;64628;50.104;14.614;2023-04-02T04:53:43;45;44;
75946;PMS5003;64628;50.104;14.614;2023-04-02T04:56:04;37;34;
75946;PMS5003;64628;50.104;14.614;2023-04-02T04:58:31;39;34;
75946;PMS5003;64628;50.104;14.614;2023-04-02T05:00:57;50;46;
75946;PMS5003;64628;50.104;14.614;2023-04-02T05:03:24;32;31;
75946;PMS5003;64628;50.104;14.614;2023-04-02T05:05:47;37;33;
75946;PMS5003;64628;50.104;14.614;2023-04-02T05:08:13;46;45;
75946;PMS5003;64628;50.104;14.614;2023-04-02T05:10:39;55;55;
75946;PMS5003;64628;50.104;14.614;2023-04-02T05:13:04;73;70;
75946;PMS5003;64628;50.104;14.614;2023-04-02T05:15:30;95;92;
75946;PMS5003;64628;50.104;14.614;2023-04-02T05:18:07;54;51;
75946;PMS5003;64628;50.104;14.614;2023-04-02T05:20:22;39;34;
75946;PMS5003;64628;50.104;14.614;2023-04-02T05:22:47;164;161;
75946;PMS5003;64628;50.104;14.614;2023-04-02T05:25:14;140;138;
75946;PMS5003;64628;50.104;14.614;2023-04-02T05:27:40;70;63;
75946;PMS5003;64628;50.104;14.614;2023-04-02T05:30:05;61;51;
75946;PMS5003;64628;50.104;14.614;2023-04-02T05:32:34;55;51;
75946;PMS5003;64628;50.104;14.614;2023-04-02T05:34:55;121;117;
75946;PMS5003;64628;50.104;14.614;2023-04-02T05:37:20;73;73;
75946;PMS5003;64628;50.104;14.614;2023-04-02T05:39:47;67;66;
75946;PMS5003;64628;50.104;14.614;2023-04-02T05:42:14;44;42;
75946;PMS5003;64628;50.104;14.614;2023-04-02T05:44:37;101;99;
75946;PMS5003;64628;50.104;14.614;2023-04-02T05:47:03;91;89;
75946;PMS5003;64628;50.104;14.614;2023-04-02T05:49:30;82;81;
75946;PMS5003;64628;50.104;14.614;2023-04-02T05:51:55;46;46;
75946;PMS5003;64628;50.104;14.614;2023-04-02T05:54:25;14;14;
75946;PMS5003;64628;50.104;14.614;2023-04-02T05:56:51;14;14;
75946;PMS5003;64628;50.104;14.614;2023-04-02T05:59:11;18;17;
75946;PMS5003;64628;50.104;14.614;2023-04-02T06:01:38;15;15;
75946;PMS5003;64628;50.104;14.614;2023-04-02T06:04:10;17;13;
75946;PMS5003;64628;50.104;14.614;2023-04-02T06:06:32;12;10;
75946;PMS5003;64628;50.104;14.614;2023-04-02T06:08:55;14;12;
75946;PMS5003;64628;50.104;14.614;2023-04-02T06:11:19;14;13;
75946;PMS5003;64628;50.104;14.614;2023-04-02T06:13:43;15;14;
75946;PMS5003;64628;50.104;14.614;2023-04-02T06:16:09;11;11;
75946;PMS5003;64628;50.104;14.614;2023-04-02T06:18:35;12;12;
75946;PMS5003;64628;50.104;14.614;2023-04-02T06:21:02;13;12;
75946;PMS5003;64628;50.104;14.614;2023-04-02T06:23:25;14;13;
75946;PMS5003;64628;50.104;14.614;2023-04-02T06:25:52;23;20;
75946;PMS5003;64628;50.104;14.614;2023-04-02T06:28:18;11;11;
75946;PMS5003;64628;50.104;14.614;2023-04-02T06:30:42;13;12;
75946;PMS5003;64628;50.104;14.614;2023-04-02T06:33:08;12;12;
75946;PMS5003;64628;50.104;14.614;2023-04-02T06:35:33;12;12;
75946;PMS5003;64628;50.104;14.614;2023-04-02T06:37:58;13;11;
75946;PMS5003;64628;50.104;14.614;2023-04-02T06:40:27;13;12;
75946;PMS5003;64628;50.104;14.614;2023-04-02T06:42:54;12;12;
75946;PMS5003;64628;50.104;14.614;2023-04-02T06:45:22;18;13;
75946;PMS5003;64628;50.104;14.614;2023-04-02T06:47:40;13;12;
75946;PMS5003;64628;50.104;14.614;2023-04-02T06:50:07;11;11;
75946;PMS5003;64628;50.104;14.614;2023-04-02T06:52:33;17;13;
75946;PMS5003;64628;50.104;14.614;2023-04-02T06:54:58;13;11;
75946;PMS5003;64628;50.104;14.614;2023-04-02T06:57:23;11;11;
75946;PMS5003;64628;50.104;14.614;2023-04-02T06:59:47;12;9;
75946;PMS5003;64628;50.104;14.614;2023-04-02T07:02:21;13;13;
75946;PMS5003;64628;50.104;14.614;2023-04-02T07:04:38;11;11;
75946;PMS5003;64628;50.104;14.614;2023-04-02T07:07:03;11;11;
75946;PMS5003;64628;50.104;14.614;2023-04-02T07:09:30;9;7;
75946;PMS5003;64628;50.104;14.614;2023-04-02T07:11:54;11;11;
75946;PMS5003;64628;50.104;14.614;2023-04-02T07:14:23;9;9;
75946;PMS5003;64628;50.104;14.614;2023-04-02T07:16:54;11;8;
75946;PMS5003;64628;50.104;14.614;2023-04-02T07:19:16;11;8;
75946;PMS5003;64628;50.104;14.614;2023-04-02T07:21:36;14;10;
75946;PMS5003;64628;50.104;14.614;2023-04-02T07:24:04;8;8;
75946;PMS5003;64628;50.104;14.614;2023-04-02T07:26:28;8;8;
75946;PMS5003;64628;50.104;14.614;2023-04-02T07:29:05;9;8;
75946;PMS5003;64628;50.104;14.614;2023-04-02T07:31:24;8;8;
75946;PMS5003;64628;50.104;14.614;2023-04-02T07:33:44;10;8;
75946;PMS5003;64628;50.104;14.614;2023-04-02T07:36:12;6;6;
75946;PMS5003;64628;50.104;14.614;2023-04-02T07:38:35;5;5;
75946;PMS5003;64628;50.104;14.614;2023-04-02T07:41:04;6;6;
75946;PMS5003;64628;50.104;14.614;2023-04-02T07:43:32;9;7;
75946;PMS5003;64628;50.104;14.614;2023-04-02T07:45:57;7;7;
75946;PMS5003;64628;50.104;14.614;2023-04-02T07:48:16;6;6;
75946;PMS5003;64628;50.104;14.614;2023-04-02T07:50:43;7;6;
75946;PMS5003;64628;50.104;14.614;2023-04-02T07:53:11;9;6;
75946;PMS5003;64628;50.104;14.614;2023-04-02T07:55:34;7;7;
75946;PMS5003;64628;50.104;14.614;2023-04-02T07:58:05;8;6;
75946;PMS5003;64628;50.104;14.614;2023-04-02T08:00:27;6;4;
75946;PMS5003;64628;50.104;14.614;2023-04-02T08:02:50;3;3;
75946;PMS5003;64628;50.104;14.614;2023-04-02T08:05:16;7;7;
75946;PMS5003;64628;50.104;14.614;2023-04-02T08:07:40;6;6;
75946;PMS5003;64628;50.104;14.614;2023-04-02T08:10:12;6;6;
75946;PMS5003;64628;50.104;14.614;2023-04-02T08:12:31;7;6;
75946;PMS5003;64628;50.104;14.614;2023-04-02T08:14:57;6;4;
75946;PMS5003;64628;50.104;14.614;2023-04-02T08:17:23;7;7;
75946;PMS5003;64628;50.104;14.614;2023-04-02T08:19:47;6;6;
75946;PMS5003;64628;50.104;14.614;2023-04-02T08:22:13;6;6;
75946;PMS5003;64628;50.104;14.614;2023-04-02T08:27:04;7;4;
75946;PMS5003;64628;50.104;14.614;2023-04-02T08:29:39;6;6;
75946;PMS5003;64628;50.104;14.614;2023-04-02T08:31:56;7;7;
75946;PMS5003;64628;50.104;14.614;2023-04-02T08:34:20;4;3;
75946;PMS5003;64628;50.104;14.614;2023-04-02T08:39:11;4;4;
75946;PMS5003;64628;50.104;14.614;2023-04-02T08:41:38;6;6;
75946;PMS5003;64628;50.104;14.614;2023-04-02T08:44:06;8;7;
75946;PMS5003;64628;50.104;14.614;2023-04-02T08:46:29;6;6;
75946;PMS5003;64628;50.104;14.614;2023-04-02T08:48:54;7;7;
75946;PMS5003;64628;50.104;14.614;2023-04-02T08:51:20;5;5;
75946;PMS5003;64628;50.104;14.614;2023-04-02T08:53:44;7;4;
75946;PMS5003;64628;50.104;14.614;2023-04-02T08:56:12;3;3;
75946;PMS5003;64628;50.104;14.614;2023-04-02T08:58:41;9;8;
75946;PMS5003;64628;50.104;14.614;2023-04-02T09:01:01;4;4;
75946;PMS5003;64628;50.104;14.614;2023-04-02T09:03:28;10;10;
75946;PMS5003;64628;50.104;14.614;2023-04-02T09:05:51;17;16;
75946;PMS5003;64628;50.104;14.614;2023-04-02T09:08:22;101;101;
75946;PMS5003;64628;50.104;14.614;2023-04-02T09:10:44;160;160;
75946;PMS5003;64628;50.104;14.614;2023-04-02T09:13:12;57;57;
75946;PMS5003;64628;50.104;14.614;2023-04-02T09:17:59;19;19;
75946;PMS5003;64628;50.104;14.614;2023-04-02T09:20:24;6;5;
75946;PMS5003;64628;50.104;14.614;2023-04-02T09:22:49;7;7;
75946;PMS5003;64628;50.104;14.614;2023-04-02T09:25:16;6;5;
75946;PMS5003;64628;50.104;14.614;2023-04-02T09:27:40;5;5;
75946;PMS5003;64628;50.104;14.614;2023-04-02T09:30:12;7;6;
75946;PMS5003;64628;50.104;14.614;2023-04-02T09:32:36;5;5;
75946;PMS5003;64628;50.104;14.614;2023-04-02T09:37:23;12;8;
75946;PMS5003;64628;50.104;14.614;2023-04-02T09:39:51;6;6;
75946;PMS5003;64628;50.104;14.614;2023-04-02T09:44:40;9;7;
75946;PMS5003;64628;50.104;14.614;2023-04-02T09:47:03;7;7;
75946;PMS5003;64628;50.104;14.614;2023-04-02T09:49:28;10;10;
75946;PMS5003;64628;50.104;14.614;2023-04-02T09:54:20;14;13;
75946;PMS5003;64628;50.104;14.614;2023-04-02T09:59:13;7;7;
75946;PMS5003;64628;50.104;14.614;2023-04-02T10:01:35;9;9;
75946;PMS5003;64628;50.104;14.614;2023-04-02T10:04:04;8;8;
75946;PMS5003;64628;50.104;14.614;2023-04-02T10:06:27;14;12;
75946;PMS5003;64628;50.104;14.614;2023-04-02T10:11:22;8;8;
75946;PMS5003;64628;50.104;14.614;2023-04-02T10:13:43;18;13;
75946;PMS5003;64628;50.104;14.614;2023-04-02T10:16:08;26;20;
75946;PMS5003;64628;50.104;14.614;2023-04-02T10:18:36;13;12;
75946;PMS5003;64628;50.104;14.614;2023-04-02T10:21:01;15;15;
75946;PMS5003;64628;50.104;14.614;2023-04-02T10:23:26;11;10;
75946;PMS5003;64628;50.104;14.614;2023-04-02T10:25:49;9;9;
75946;PMS5003;64628;50.104;14.614;2023-04-02T10:28:17;8;8;
75946;PMS5003;64628;50.104;14.614;2023-04-02T10:30:49;10;10;
75946;PMS5003;64628;50.104;14.614;2023-04-02T10:33:06;27;21;
75946;PMS5003;64628;50.104;14.614;2023-04-02T10:40:23;41;36;
75946;PMS5003;64628;50.104;14.614;2023-04-02T10:42:53;34;30;
75946;PMS5003;64628;50.104;14.614;2023-04-02T10:45:16;28;24;
75946;PMS5003;64628;50.104;14.614;2023-04-02T10:47:44;27;27;
75946;PMS5003;64628;50.104;14.614;2023-04-02T10:52:29;24;23;
75946;PMS5003;64628;50.104;14.614;2023-04-02T10:54:57;17;16;
75946;PMS5003;64628;50.104;14.614;2023-04-02T10:57:22;26;23;
75946;PMS5003;64628;50.104;14.614;2023-04-02T10:59:51;24;24;
75946;PMS5003;64628;50.104;14.614;2023-04-02T11:04:37;27;27;
75946;PMS5003;64628;50.104;14.614;2023-04-02T11:07:01;22;21;
75946;PMS5003;64628;50.104;14.614;2023-04-02T11:09:26;17;17;
75946;PMS5003;64628;50.104;14.614;2023-04-02T11:11:57;24;19;
75946;PMS5003;64628;50.104;14.614;2023-04-02T11:14:18;17;14;
75946;PMS5003;64628;50.104;14.614;2023-04-02T11:16:44;12;12;
75946;PMS5003;64628;50.104;14.614;2023-04-02T11:19:08;15;15;
75946;PMS5003;64628;50.104;14.614;2023-04-02T11:21:39;14;12;
75946;PMS5003;64628;50.104;14.614;2023-04-02T11:23:59;16;14;
75946;PMS5003;64628;50.104;14.614;2023-04-02T11:28:49;28;26;
75946;PMS5003;64628;50.104;14.614;2023-04-02T11:31:19;16;15;
75946;PMS5003;64628;50.104;14.614;2023-04-02T11:40:56;11;11;
75946;PMS5003;64628;50.104;14.614;2023-04-02T11:45:51;18;17;
75946;PMS5003;64628;50.104;14.614;2023-04-02T11:50:39;17;16;
75946;PMS5003;64628;50.104;14.614;2023-04-02T11:53:04;18;18;
75946;PMS5003;64628;50.104;14.614;2023-04-02T11:55:29;18;17;
75946;PMS5003;64628;50.104;14.614;2023-04-02T11:57:58;20;19;
75946;PMS5003;64628;50.104;14.614;2023-04-02T12:00:26;20;20;
75946;PMS5003;64628;50.104;14.614;2023-04-02T12:02:48;31;27;
75946;PMS5003;64628;50.104;14.614;2023-04-02T12:05:15;25;23;
75946;PMS5003;64628;50.104;14.614;2023-04-02T12:07:42;26;26;
75946;PMS5003;64628;50.104;14.614;2023-04-02T12:10:02;43;36;
75946;PMS5003;64628;50.104;14.614;2023-04-02T12:12:28;19;19;
75946;PMS5003;64628;50.104;14.614;2023-04-02T12:14:52;42;42;
75946;PMS5003;64628;50.104;14.614;2023-04-02T12:17:23;32;26;
75946;PMS5003;64628;50.104;14.614;2023-04-02T12:19:45;48;39;
75946;PMS5003;64628;50.104;14.614;2023-04-02T12:22:11;41;37;
75946;PMS5003;64628;50.104;14.614;2023-04-02T12:24:34;32;26;
75946;PMS5003;64628;50.104;14.614;2023-04-02T12:27:06;27;22;
75946;PMS5003;64628;50.104;14.614;2023-04-02T12:29:25;19;18;
75946;PMS5003;64628;50.104;14.614;2023-04-02T12:31:51;23;19;
75946;PMS5003;64628;50.104;14.614;2023-04-02T12:34:17;17;17;
75946;PMS5003;64628;50.104;14.614;2023-04-02T12:39:12;14;13;
75946;PMS5003;64628;50.104;14.614;2023-04-02T12:41:35;17;17;
75946;PMS5003;64628;50.104;14.614;2023-04-02T12:43:58;19;17;
75946;PMS5003;64628;50.104;14.614;2023-04-02T12:46:23;18;17;
75946;PMS5003;64628;50.104;14.614;2023-04-02T12:48:49;28;21;
75946;PMS5003;64628;50.104;14.614;2023-04-02T12:51:15;30;23;
75946;PMS5003;64628;50.104;14.614;2023-04-02T12:53:40;24;21;
75946;PMS5003;64628;50.104;14.614;2023-04-02T12:56:06;30;24;
75946;PMS5003;64628;50.104;14.614;2023-04-02T12:58:34;26;25;
75946;PMS5003;64628;50.104;14.614;2023-04-02T13:03:23;30;23;
75946;PMS5003;64628;50.104;14.614;2023-04-02T13:05:49;24;19;
75946;PMS5003;64628;50.104;14.614;2023-04-02T13:08:16;31;28;
75946;PMS5003;64628;50.104;14.614;2023-04-02T13:10:45;24;23;
75946;PMS5003;64628;50.104;14.614;2023-04-02T13:13:05;34;33;
75946;PMS5003;64628;50.104;14.614;2023-04-02T13:15:32;25;23;
75946;PMS5003;64628;50.104;14.614;2023-04-02T13:18:05;23;20;
75946;PMS5003;64628;50.104;14.614;2023-04-02T13:20:28;22;22;
75946;PMS5003;64628;50.104;14.614;2023-04-02T13:22:48;21;20;
75946;PMS5003;64628;50.104;14.614;2023-04-02T13:25:12;31;24;
75946;PMS5003;64628;50.104;14.614;2023-04-02T13:27:38;25;25;
75946;PMS5003;64628;50.104;14.614;2023-04-02T13:30:12;27;24;
75946;PMS5003;64628;50.104;14.614;2023-04-02T13:34:55;15;15;
75946;PMS5003;64628;50.104;14.614;2023-04-02T13:37:25;17;17;
75946;PMS5003;64628;50.104;14.614;2023-04-02T13:39:51;19;15;
75946;PMS5003;64628;50.104;14.614;2023-04-02T13:42:16;13;13;
75946;PMS5003;64628;50.104;14.614;2023-04-02T13:44:37;15;15;
75946;PMS5003;64628;50.104;14.614;2023-04-02T13:47:03;15;14;
75946;PMS5003;64628;50.104;14.614;2023-04-02T13:49:28;14;11;
75946;PMS5003;64628;50.104;14.614;2023-04-02T13:51:53;9;9;
75946;PMS5003;64628;50.104;14.614;2023-04-02T13:54:21;13;12;
75946;PMS5003;64628;50.104;14.614;2023-04-02T13:59:23;15;15;
75946;PMS5003;64628;50.104;14.614;2023-04-02T14:01:42;20;18;
75946;PMS5003;64628;50.104;14.614;2023-04-02T14:04:05;14;13;
75946;PMS5003;64628;50.104;14.614;2023-04-02T14:06:36;15;12;
75946;PMS5003;64628;50.104;14.614;2023-04-02T14:35:45;18;17;
75946;PMS5003;64628;50.104;14.614;2023-04-02T14:45:16;21;18;
75946;PMS5003;64628;50.104;14.614;2023-04-02T14:50:08;20;19;
75946;PMS5003;64628;50.104;14.614;2023-04-02T14:57:25;21;19;
75946;PMS5003;64628;50.104;14.614;2023-04-02T15:12:00;14;14;
75946;PMS5003;64628;50.104;14.614;2023-04-02T15:14:26;14;13;
75946;PMS5003;64628;50.104;14.614;2023-04-02T15:16:48;16;14;
75946;PMS5003;64628;50.104;14.614;2023-04-02T15:21:44;9;9;
75946;PMS5003;64628;50.104;14.614;2023-04-02T15:29:01;7;7;
75946;PMS5003;64628;50.104;14.614;2023-04-02T15:38:43;8;8;
75946;PMS5003;64628;50.104;14.614;2023-04-02T15:50:53;13;12;
75946;PMS5003;64628;50.104;14.614;2023-04-02T16:02:55;13;9;
75946;PMS5003;64628;50.104;14.614;2023-04-02T16:12:31;12;9;
75946;PMS5003;64628;50.104;14.614;2023-04-02T16:14:58;13;13;
75946;PMS5003;64628;50.104;14.614;2023-04-02T16:24:40;19;17;
75946;PMS5003;64628;50.104;14.614;2023-04-02T16:31:59;19;17;
75946;PMS5003;64628;50.104;14.614;2023-04-02T16:34:23;13;13;
75946;PMS5003;64628;50.104;14.614;2023-04-02T16:36:52;18;14;
75946;PMS5003;64628;50.104;14.614;2023-04-02T16:41:40;13;13;
75946;PMS5003;64628;50.104;14.614;2023-04-02T16:44:12;18;14;
75946;PMS5003;64628;50.104;14.614;2023-04-02T16:48:56;18;16;
75946;PMS5003;64628;50.104;14.614;2023-04-02T16:51:19;16;13;
75946;PMS5003;64628;50.104;14.614;2023-04-02T16:56:15;9;9;
75946;PMS5003;64628;50.104;14.614;2023-04-02T16:58:38;12;12;
75946;PMS5003;64628;50.104;14.614;2023-04-02T17:01:02;10;10;
75946;PMS5003;64628;50.104;14.614;2023-04-02T17:05:51;15;12;
75946;PMS5003;64628;50.104;14.614;2023-04-02T17:08:22;12;11;
75946;PMS5003;64628;50.104;14.614;2023-04-02T17:10:45;13;11;
75946;PMS5003;64628;50.104;14.614;2023-04-02T17:15:32;12;10;
75946;PMS5003;64628;50.104;14.614;2023-04-02T17:17:59;18;13;
75946;PMS5003;64628;50.104;14.614;2023-04-02T17:20:24;13;10;
75946;PMS5003;64628;50.104;14.614;2023-04-02T17:22:54;15;11;
75946;PMS5003;64628;50.104;14.614;2023-04-02T17:25:20;16;13;
75946;PMS5003;64628;50.104;14.614;2023-04-02T17:27:40;12;12;
75946;PMS5003;64628;50.104;14.614;2023-04-02T17:44:42;20;16;
75946;PMS5003;64628;50.104;14.614;2023-04-02T18:25:51;13;10;
75946;PMS5003;64628;50.104;14.614;2023-04-02T18:30:49;18;15;
75946;PMS5003;64628;50.104;14.614;2023-04-02T18:33:16;13;8;
75946;PMS5003;64628;50.104;14.614;2023-04-02T18:35:32;15;13;
75946;PMS5003;64628;50.104;14.614;2023-04-02T18:38:01;13;13;
75946;PMS5003;64628;50.104;14.614;2023-04-02T18:42:52;13;11;
75946;PMS5003;64628;50.104;14.614;2023-04-02T18:45:15;20;18;
75946;PMS5003;64628;50.104;14.614;2023-04-02T18:47:41;12;12;
75946;PMS5003;64628;50.104;14.614;2023-04-02T18:52:30;16;13;
75946;PMS5003;64628;50.104;14.614;2023-04-02T18:54:58;12;12;
75946;PMS5003;64628;50.104;14.614;2023-04-02T19:04:41;13;12;
75946;PMS5003;64628;50.104;14.614;2023-04-02T19:07:07;11;11;
75946;PMS5003;64628;50.104;14.614;2023-04-02T19:09:30;16;13;
75946;PMS5003;64628;50.104;14.614;2023-04-02T19:11:55;16;13;
75946;PMS5003;64628;50.104;14.614;2023-04-02T19:14:22;13;12;
75946;PMS5003;64628;50.104;14.614;2023-04-02T19:19:16;10;8;
75946;PMS5003;64628;50.104;14.614;2023-04-02T19:21:41;13;11;
75946;PMS5003;64628;50.104;14.614;2023-04-02T19:24:07;20;18;
75946;PMS5003;64628;50.104;14.614;2023-04-02T19:26:34;18;12;
75946;PMS5003;64628;50.104;14.614;2023-04-02T19:31:28;11;8;
75946;PMS5003;64628;50.104;14.614;2023-04-02T19:33:46;10;8;
75946;PMS5003;64628;50.104;14.614;2023-04-02T19:36:16;12;11;
75946;PMS5003;64628;50.104;14.614;2023-04-02T19:38:39;11;10;
75946;PMS5003;64628;50.104;14.614;2023-04-02T19:41:00;11;11;
75946;PMS5003;64628;50.104;14.614;2023-04-02T19:43:27;8;8;
75946;PMS5003;64628;50.104;14.614;2023-04-02T19:46:00;15;12;
75946;PMS5003;64628;50.104;14.614;2023-04-02T19:48:19;13;12;
75946;PMS5003;64628;50.104;14.614;2023-04-02T19:50:48;10;10;
75946;PMS5003;64628;50.104;14.614;2023-04-02T19:53:09;13;11;
75946;PMS5003;64628;50.104;14.614;2023-04-02T19:55:38;11;10;
75946;PMS5003;64628;50.104;14.614;2023-04-02T19:58:00;12;10;
75946;PMS5003;64628;50.104;14.614;2023-04-02T20:00:25;11;11;
75946;PMS5003;64628;50.104;14.614;2023-04-02T20:05:21;11;10;
75946;PMS5003;64628;50.104;14.614;2023-04-02T20:07:47;15;11;
75946;PMS5003;64628;50.104;14.614;2023-04-02T20:19:49;21;16;
75946;PMS5003;64628;50.104;14.614;2023-04-02T20:22:14;12;12;
75946;PMS5003;64628;50.104;14.614;2023-04-02T20:24:38;13;12;